createdAt,value
2024-04-16T00:00:37.678Z,5.06
2024-04-16T00:03:04.536Z,5.01
2024-04-16T00:05:31.173Z,5.03
2024-04-16T00:07:57.670Z,4.99
2024-04-16T00:10:24.185Z,4.98
2024-04-16T00:12:50.754Z,4.97
2024-04-16T00:15:17.378Z,4.98
2024-04-16T00:17:45.215Z,4.99
2024-04-16T00:20:12.399Z,4.92
2024-04-16T00:22:38.900Z,4.87
2024-04-16T00:25:06.265Z,4.80
2024-04-16T00:27:32.764Z,4.79
2024-04-16T00:29:59.266Z,4.76
2024-04-16T00:32:26.146Z,4.78
2024-04-16T00:34:53.118Z,4.77
2024-04-16T00:37:20.704Z,4.77
2024-04-16T00:39:50.096Z,4.74
2024-04-16T00:42:16.728Z,4.70
2024-04-16T00:44:43.720Z,4.72
2024-04-16T00:47:12.809Z,4.79
2024-04-16T00:49:40.125Z,4.87
2024-04-16T00:52:06.960Z,4.89
2024-04-16T00:54:34.528Z,4.92
2024-04-16T00:57:01.653Z,4.84
2024-04-16T00:59:29.165Z,4.88
2024-04-16T01:01:56.626Z,4.95
2024-04-16T01:04:24.153Z,4.98
2024-04-16T01:06:53.636Z,5.02
2024-04-16T01:09:20.284Z,4.99
2024-04-16T01:11:46.926Z,5.00
2024-04-16T01:14:14.032Z,5.12
2024-04-16T01:16:40.584Z,5.16
2024-04-16T01:19:08.237Z,5.17
2024-04-16T01:21:34.869Z,5.19
2024-04-16T01:24:01.370Z,5.28
2024-04-16T01:26:27.940Z,5.25
2024-04-16T01:28:54.421Z,5.25
2024-04-16T01:31:20.968Z,5.29
2024-04-16T01:33:47.478Z,5.25
2024-04-16T01:36:13.974Z,5.24
2024-04-16T01:38:40.476Z,5.23
2024-04-16T01:41:06.985Z,5.20
2024-04-16T01:43:33.632Z,5.20
2024-04-16T01:46:00.249Z,5.24
2024-04-16T01:48:26.824Z,5.22
2024-04-16T01:50:55.393Z,5.23
2024-04-16T01:53:21.884Z,5.16
2024-04-16T01:55:48.357Z,5.11
2024-04-16T01:58:14.912Z,5.11
2024-04-16T02:00:41.444Z,5.14
2024-04-16T02:03:08.221Z,5.15
2024-04-16T02:05:38.039Z,5.21
2024-04-16T02:08:04.869Z,5.24
2024-04-16T02:10:31.385Z,5.16
2024-04-16T02:12:57.905Z,5.19
2024-04-16T02:15:24.406Z,5.22
2024-04-16T02:17:51.182Z,5.26
2024-04-16T02:20:17.792Z,5.26
2024-04-16T02:22:44.382Z,5.25
2024-04-16T02:25:10.927Z,5.14
2024-04-16T02:27:37.552Z,5.09
2024-04-16T02:30:04.469Z,4.96
2024-04-16T02:32:31.010Z,4.86
2024-04-16T02:34:57.520Z,4.76
2024-04-16T02:37:24.000Z,4.74
2024-04-16T02:39:50.473Z,4.71
2024-04-16T02:42:16.942Z,4.77
2024-04-16T02:44:43.461Z,4.88
2024-04-16T02:47:09.941Z,4.94
2024-04-16T02:49:36.538Z,4.90
2024-04-16T02:52:03.053Z,4.86
2024-04-16T02:54:29.547Z,4.79
2024-04-16T02:56:56.016Z,4.66
2024-04-16T02:59:22.491Z,4.60
2024-04-16T03:01:49.096Z,4.55
2024-04-16T03:04:15.671Z,4.53
2024-04-16T03:06:42.140Z,4.53
2024-04-16T03:09:08.617Z,4.53
2024-04-16T03:11:35.117Z,4.51
2024-04-16T03:14:01.685Z,4.43
2024-04-16T03:16:28.357Z,4.45
2024-04-16T03:18:54.867Z,4.42
2024-04-16T03:21:23.395Z,4.42
2024-04-16T03:23:51.412Z,4.46
2024-04-16T03:26:17.889Z,4.46
2024-04-16T03:28:44.373Z,4.49
2024-04-16T03:31:10.876Z,4.50
2024-04-16T03:33:37.363Z,4.57
2024-04-16T03:36:04.159Z,4.57
2024-04-16T03:38:30.704Z,4.60
2024-04-16T03:41:00.915Z,4.64
2024-04-16T03:43:28.639Z,4.62
2024-04-16T03:45:56.573Z,4.62
2024-04-16T03:48:25.077Z,4.61
2024-04-16T03:50:51.774Z,4.57
2024-04-16T03:53:18.463Z,4.59
2024-04-16T03:55:45.591Z,4.64
2024-04-16T03:58:12.144Z,4.64
2024-04-16T04:00:38.808Z,4.62
2024-04-16T04:03:05.557Z,4.66
2024-04-16T04:05:32.035Z,4.72
2024-04-16T04:07:58.536Z,4.74
2024-04-16T04:10:25.036Z,4.73
2024-04-16T04:12:51.529Z,4.75
2024-04-16T04:15:17.985Z,4.75
2024-04-16T04:17:44.527Z,4.83
2024-04-16T04:20:11.080Z,4.88
2024-04-16T04:25:04.598Z,4.97
2024-04-16T04:27:31.208Z,5.05
2024-04-16T04:29:57.717Z,5.07
2024-04-16T04:32:24.259Z,5.13
2024-04-16T04:34:50.751Z,5.17
2024-04-16T04:37:17.311Z,5.16
2024-04-16T04:39:43.797Z,5.18
2024-04-16T04:42:10.386Z,5.13
2024-04-16T04:44:36.887Z,5.05
2024-04-16T04:47:03.354Z,5.07
2024-04-16T04:49:29.852Z,5.04
2024-04-16T04:51:56.318Z,5.09
2024-04-16T04:54:22.925Z,5.07
2024-04-16T04:56:49.403Z,5.07
2024-04-16T04:59:15.933Z,5.10
2024-04-16T05:01:42.427Z,5.09
2024-04-16T05:04:09.047Z,5.10
2024-04-16T05:06:35.592Z,5.12
2024-04-16T05:09:02.079Z,5.06
2024-04-16T05:11:28.601Z,5.06
2024-04-16T05:13:55.109Z,5.06
2024-04-16T05:16:21.715Z,5.07
2024-04-16T05:18:49.550Z,5.13
2024-04-16T05:21:16.148Z,5.24
2024-04-16T05:23:42.654Z,5.37
2024-04-16T05:26:09.175Z,5.32
2024-04-16T05:28:36.120Z,5.32
2024-04-16T05:31:02.790Z,5.33
2024-04-16T05:33:29.323Z,5.72
2024-04-16T05:36:02.223Z,6.36
2024-04-16T05:38:32.490Z,6.48
2024-04-16T05:40:58.972Z,6.63
2024-04-16T05:43:25.474Z,6.59
2024-04-16T05:45:51.952Z,6.33
2024-04-16T05:48:18.474Z,6.09
2024-04-16T05:50:45.023Z,6.04
2024-04-16T05:53:11.605Z,5.91
2024-04-16T05:55:38.233Z,5.87
2024-04-16T05:58:05.068Z,5.78
2024-04-16T06:00:31.636Z,5.73
2024-04-16T06:02:58.270Z,5.81
2024-04-16T06:05:24.725Z,5.87
2024-04-16T06:07:51.218Z,5.85
2024-04-16T06:10:17.800Z,5.82
2024-04-16T06:12:44.314Z,5.83
2024-04-16T06:15:10.829Z,5.88
2024-04-16T06:17:37.357Z,5.74
2024-04-16T06:20:04.090Z,5.76
2024-04-16T06:22:30.676Z,5.75
2024-04-16T06:24:57.185Z,5.70
2024-04-16T06:27:23.765Z,5.72
2024-04-16T06:29:50.269Z,5.73
2024-04-16T06:32:16.749Z,5.66
2024-04-16T06:34:43.311Z,5.67
2024-04-16T06:37:09.864Z,5.63
2024-04-16T06:39:36.584Z,5.59
2024-04-16T06:42:03.170Z,5.57
2024-04-16T06:44:29.685Z,5.64
2024-04-16T06:46:56.148Z,5.63
2024-04-16T06:49:22.862Z,5.60
2024-04-16T06:51:49.335Z,5.59
2024-04-16T06:54:15.810Z,5.64
2024-04-16T06:56:42.310Z,5.92
2024-04-16T06:59:09.125Z,6.15
2024-04-16T07:01:35.784Z,6.15
2024-04-16T07:04:02.339Z,6.07
2024-04-16T07:06:29.471Z,5.98
2024-04-16T07:08:56.021Z,5.92
2024-04-16T07:11:22.662Z,6.08
2024-04-16T07:13:49.287Z,6.28
2024-04-16T07:16:15.886Z,6.38
2024-04-16T07:18:42.405Z,6.48
2024-04-16T07:21:08.969Z,6.41
2024-04-16T07:23:35.487Z,6.38
2024-04-16T07:26:03.928Z,6.29
2024-04-16T07:28:32.779Z,6.17
2024-04-16T07:31:06.016Z,6.26
2024-04-16T07:33:36.964Z,6.53
2024-04-16T07:36:04.480Z,6.83
2024-04-16T07:38:30.951Z,7.29
2024-04-16T07:40:57.986Z,7.32
2024-04-16T07:43:24.614Z,7.16
2024-04-16T07:45:51.233Z,7.19
2024-04-16T07:48:17.783Z,7.54
2024-04-16T07:50:44.692Z,7.52
2024-04-16T07:53:11.471Z,7.43
2024-04-16T07:55:38.170Z,7.16
2024-04-16T07:58:05.038Z,6.96
2024-04-16T08:00:31.693Z,6.87
2024-04-16T08:02:58.272Z,7.11
2024-04-16T08:05:24.810Z,7.17
2024-04-16T08:07:51.365Z,7.22
2024-04-16T08:10:18.853Z,7.51
2024-04-16T08:12:45.404Z,8.02
2024-04-16T08:15:11.883Z,8.20
2024-04-16T08:17:38.591Z,8.37
2024-04-16T08:20:07.684Z,8.41
2024-04-16T08:22:35.919Z,8.39
2024-04-16T08:25:02.419Z,8.10
2024-04-16T08:27:28.972Z,7.82
2024-04-16T08:29:55.500Z,7.65
2024-04-16T08:32:22.155Z,7.37
2024-04-16T08:34:49.173Z,7.28
2024-04-16T08:37:15.842Z,7.37
2024-04-16T08:39:42.372Z,7.48
2024-04-16T08:42:09.219Z,7.51
2024-04-16T08:44:36.062Z,7.45
2024-04-16T08:47:03.709Z,7.24
2024-04-16T08:49:31.133Z,7.12
2024-04-16T08:51:58.688Z,7.09
2024-04-16T08:54:25.592Z,7.06
2024-04-16T08:56:52.431Z,6.98
2024-04-16T08:59:19.156Z,6.99
2024-04-16T09:01:49.566Z,7.17
2024-04-16T09:04:19.381Z,7.28
2024-04-16T09:06:46.559Z,7.40
2024-04-16T09:09:13.052Z,7.42
2024-04-16T09:11:40.642Z,7.25
2024-04-16T09:14:08.012Z,7.22
2024-04-16T09:16:36.698Z,7.45
2024-04-16T09:19:10.452Z,7.82
2024-04-16T09:21:37.027Z,8.00
2024-04-16T09:24:03.816Z,8.29
2024-04-16T09:26:34.170Z,8.52
2024-04-16T09:29:00.716Z,8.75
2024-04-16T09:31:27.261Z,8.86
2024-04-16T09:34:07.805Z,8.66
2024-04-16T09:36:35.641Z,8.49
2024-04-16T09:39:02.137Z,8.45
2024-04-16T09:41:29.655Z,8.36
2024-04-16T09:43:56.926Z,8.27
2024-04-16T09:46:23.962Z,8.27
2024-04-16T09:48:53.163Z,8.54
2024-04-16T09:51:23.087Z,8.70
2024-04-16T09:53:50.618Z,9.03
2024-04-16T09:56:19.054Z,8.96
2024-04-16T09:58:51.976Z,9.20
2024-04-16T10:01:21.342Z,9.15
2024-04-16T10:03:49.333Z,8.92
2024-04-16T10:11:49.018Z,8.79
2024-04-16T10:14:16.364Z,8.96
2024-04-16T10:16:42.949Z,9.21
2024-04-16T10:19:09.693Z,9.38
2024-04-16T10:21:40.390Z,9.36
2024-04-16T10:24:11.461Z,9.09
2024-04-16T10:26:39.740Z,8.93
2024-04-16T10:29:12.815Z,9.38
2024-04-16T10:31:39.454Z,9.44
2024-04-16T10:34:06.445Z,9.57
2024-04-16T10:36:34.500Z,9.50
2024-04-16T10:39:11.444Z,9.30
2024-04-16T10:41:37.966Z,9.36
2024-04-16T10:44:04.737Z,9.66
2024-04-16T10:46:31.521Z,9.68
2024-04-16T10:48:58.026Z,9.77
2024-04-16T10:51:29.001Z,10.00
2024-04-16T10:54:08.185Z,9.93
2024-04-16T10:56:38.732Z,10.06
2024-04-16T10:59:09.692Z,10.00
2024-04-16T11:01:43.654Z,10.25
2024-04-16T11:04:14.720Z,10.02
2024-04-16T11:06:42.011Z,9.59
2024-04-16T11:09:08.907Z,9.55
2024-04-16T11:11:35.787Z,9.95
2024-04-16T11:14:02.835Z,10.20
2024-04-16T11:16:29.559Z,10.15
2024-04-16T11:18:57.437Z,10.10
2024-04-16T11:21:24.816Z,10.22
2024-04-16T11:23:51.713Z,10.09
2024-04-16T11:26:18.228Z,10.18
2024-04-16T11:28:44.756Z,10.17
2024-04-16T11:31:11.313Z,9.93
2024-04-16T11:33:38.149Z,10.08
2024-04-16T11:36:11.628Z,10.54
2024-04-16T11:38:41.064Z,10.66
2024-04-16T11:41:12.911Z,10.77
2024-04-16T11:43:40.483Z,10.52
2024-04-16T11:46:07.191Z,10.33
2024-04-16T11:48:34.790Z,10.22
2024-04-16T11:51:01.287Z,10.42
2024-04-16T11:53:27.811Z,10.69
2024-04-16T11:55:54.295Z,10.84
2024-04-16T11:58:20.767Z,10.91
2024-04-16T12:00:47.301Z,10.83
2024-04-16T12:03:13.762Z,10.44
2024-04-16T12:05:40.374Z,10.05
2024-04-16T12:08:09.661Z,9.97
2024-04-16T12:10:39.017Z,10.11
2024-04-16T12:13:05.814Z,10.29
2024-04-16T12:15:32.299Z,10.35
2024-04-16T12:17:59.464Z,10.42
2024-04-16T12:20:26.036Z,10.42
2024-04-16T12:22:52.583Z,10.31
2024-04-16T12:25:19.264Z,10.21
2024-04-16T12:27:45.760Z,10.25
2024-04-16T12:30:12.377Z,10.29
2024-04-16T12:32:40.716Z,10.28
2024-04-16T12:35:10.295Z,10.39
2024-04-16T12:37:38.123Z,10.36
2024-04-16T12:40:04.891Z,10.10
2024-04-16T12:42:31.396Z,9.81
2024-04-16T12:44:57.894Z,9.54
2024-04-16T12:47:24.493Z,9.08
2024-04-16T12:49:51.029Z,8.81
2024-04-16T12:52:17.550Z,8.44
2024-04-16T12:54:44.077Z,7.77
2024-04-16T12:57:10.558Z,7.52
2024-04-16T12:59:37.092Z,7.42
2024-04-16T13:02:03.799Z,7.38
2024-04-16T13:04:30.412Z,7.43
2024-04-16T13:06:56.952Z,7.45
2024-04-16T13:09:23.458Z,7.41
2024-04-16T13:11:49.929Z,7.34
2024-04-16T13:14:16.650Z,7.24
2024-04-16T13:16:43.154Z,7.11
2024-04-16T13:19:09.661Z,6.96
2024-04-16T13:21:36.227Z,6.81
2024-04-16T13:24:03.703Z,6.79
2024-04-16T13:26:30.193Z,6.82
2024-04-16T13:28:56.662Z,6.81
2024-04-16T13:31:23.227Z,6.90
2024-04-16T13:33:49.712Z,7.02
2024-04-16T13:36:16.256Z,7.31
2024-04-16T13:38:42.716Z,7.50
2024-04-16T13:41:09.209Z,7.55
2024-04-16T13:43:35.765Z,7.70
2024-04-16T13:46:02.326Z,7.75
2024-04-16T13:48:28.901Z,7.81
2024-04-16T13:50:58.558Z,7.81
2024-04-16T13:53:27.218Z,7.86
2024-04-16T13:55:53.799Z,8.09
2024-04-16T13:58:20.335Z,8.21
2024-04-16T14:00:46.957Z,8.32
2024-04-16T14:03:16.115Z,8.05
2024-04-16T14:05:43.267Z,7.90
2024-04-16T14:08:09.736Z,7.72
2024-04-16T14:10:36.271Z,7.72
2024-04-16T14:13:02.757Z,7.56
2024-04-16T14:15:29.238Z,7.38
2024-04-16T14:17:55.742Z,7.17
2024-04-16T14:20:22.226Z,6.96
2024-04-16T14:22:48.718Z,6.86
2024-04-16T14:25:15.267Z,6.78
2024-04-16T14:27:41.782Z,6.73
2024-04-16T14:30:08.976Z,6.73
2024-04-16T14:32:35.510Z,6.70
2024-04-16T14:35:02.033Z,6.68
2024-04-16T14:37:28.535Z,6.69
2024-04-16T14:39:55.069Z,6.83
2024-04-16T14:42:21.766Z,7.06
2024-04-16T14:44:48.263Z,7.31
2024-04-16T14:47:14.767Z,7.66
2024-04-16T14:49:41.277Z,7.88
2024-04-16T14:52:07.753Z,8.05
2024-04-16T14:54:34.209Z,8.43
2024-04-16T14:57:00.691Z,8.59
2024-04-16T14:59:27.163Z,8.54
2024-04-16T15:01:53.801Z,8.62
2024-04-16T15:04:20.564Z,8.66
2024-04-16T15:06:47.101Z,8.62
2024-04-16T15:09:13.636Z,8.50
2024-04-16T15:11:40.154Z,8.44
2024-04-16T15:14:06.679Z,8.43
2024-04-16T15:16:33.215Z,8.47
2024-04-16T15:18:59.767Z,8.58
2024-04-16T15:21:26.228Z,8.86
2024-04-16T15:23:52.979Z,9.35
2024-04-16T15:26:19.447Z,9.84
2024-04-16T15:28:45.970Z,10.05
2024-04-16T15:31:12.533Z,9.97
2024-04-16T15:33:39.041Z,9.72
2024-04-16T15:36:05.959Z,9.39
2024-04-16T15:38:32.480Z,9.14
2024-04-16T15:40:58.976Z,8.97
2024-04-16T15:43:25.601Z,8.85
2024-04-16T15:45:52.158Z,8.79
2024-04-16T15:48:20.102Z,8.67
2024-04-16T15:50:50.504Z,8.53
2024-04-16T15:53:17.019Z,8.42
2024-04-16T15:55:44.455Z,8.28
2024-04-16T15:58:11.486Z,8.13
2024-04-16T16:00:41.127Z,8.03
2024-04-16T16:03:07.719Z,7.97
2024-04-16T16:05:34.366Z,7.84
2024-04-16T16:08:00.841Z,7.77
2024-04-16T16:10:27.336Z,7.73
2024-04-16T16:12:53.949Z,7.83
2024-04-16T16:15:20.431Z,8.05
2024-04-16T16:17:46.985Z,8.18
2024-04-16T16:20:13.606Z,8.38
2024-04-16T16:22:40.145Z,8.65
2024-04-16T16:25:06.965Z,8.74
2024-04-16T16:27:33.525Z,8.79
2024-04-16T16:30:00.016Z,8.73
2024-04-16T16:32:26.678Z,8.53
2024-04-16T16:35:06.155Z,8.26
2024-04-16T16:37:32.898Z,8.20
2024-04-16T16:40:01.749Z,7.92
2024-04-16T16:42:28.674Z,7.73
2024-04-16T16:44:55.172Z,7.40
2024-04-16T16:47:21.847Z,6.02
2024-04-16T16:49:48.464Z,5.39
2024-04-16T16:52:15.130Z,5.26
2024-04-16T16:54:41.648Z,5.31
2024-04-16T16:57:08.133Z,5.45
2024-04-16T16:59:34.871Z,5.62
2024-04-16T17:02:01.964Z,5.86
2024-04-16T17:04:28.595Z,6.04
2024-04-16T17:06:55.086Z,6.08
2024-04-16T17:09:21.541Z,6.12
2024-04-16T17:11:48.108Z,6.19
2024-04-16T17:14:14.651Z,6.20
2024-04-16T17:16:41.190Z,6.23
2024-04-16T17:19:07.657Z,6.13
2024-04-16T17:21:34.148Z,5.95
2024-04-16T17:24:00.622Z,5.86
2024-04-16T17:26:27.142Z,5.79
2024-04-16T17:28:53.639Z,5.70
2024-04-16T17:31:20.167Z,5.44
2024-04-16T17:33:46.641Z,5.30
2024-04-16T17:36:13.125Z,5.27
2024-04-16T17:38:39.594Z,5.28
2024-04-16T17:41:06.061Z,5.31
2024-04-16T17:43:32.537Z,5.37
2024-04-16T17:45:59.018Z,5.30
2024-04-16T17:48:26.851Z,5.16
2024-04-16T17:51:00.858Z,5.10
2024-04-16T17:53:27.379Z,5.10
2024-04-16T17:55:53.935Z,5.08
2024-04-16T17:58:20.431Z,5.06
2024-04-16T18:00:46.930Z,5.05
2024-04-16T18:03:13.404Z,5.00
2024-04-16T18:05:39.880Z,4.94
2024-04-16T18:08:06.358Z,4.94
2024-04-16T18:10:32.879Z,4.94
2024-04-16T18:12:59.389Z,4.90
2024-04-16T18:15:25.883Z,4.93
2024-04-16T18:17:52.437Z,4.93
2024-04-16T18:20:18.971Z,4.97
2024-04-16T18:22:45.448Z,5.03
2024-04-16T18:25:11.973Z,5.06
2024-04-16T18:27:38.414Z,5.15
2024-04-16T18:30:05.320Z,5.22
2024-04-16T18:32:31.857Z,5.21
2024-04-16T18:34:58.465Z,5.21
2024-04-16T18:37:24.971Z,5.19
2024-04-16T18:39:51.516Z,5.14
2024-04-16T18:42:17.991Z,5.14
2024-04-16T18:44:45.099Z,5.14
2024-04-16T18:47:11.606Z,5.08
2024-04-16T18:49:38.132Z,5.03
2024-04-16T18:52:05.685Z,5.02
2024-04-16T18:54:33.047Z,4.99
2024-04-16T18:56:59.504Z,5.00
2024-04-16T18:59:25.956Z,4.99
2024-04-16T19:01:52.585Z,5.01
2024-04-16T19:04:19.111Z,5.03
2024-04-16T19:06:45.656Z,5.06
2024-04-16T19:09:12.326Z,5.09
2024-04-16T19:11:38.877Z,5.12
2024-04-16T19:14:05.490Z,5.14
2024-04-16T19:16:32.041Z,5.15
2024-04-16T19:18:58.580Z,5.17
2024-04-16T19:21:25.052Z,5.15
2024-04-16T19:23:51.624Z,5.15
2024-04-16T19:26:18.259Z,5.18
2024-04-16T19:28:44.787Z,5.19
2024-04-16T19:31:11.301Z,5.22
2024-04-16T19:33:37.768Z,5.27
2024-04-16T19:36:04.601Z,5.32
2024-04-16T19:38:31.097Z,5.38
2024-04-16T19:40:57.740Z,5.40
2024-04-16T19:43:24.287Z,5.44
2024-04-16T19:45:50.893Z,5.46
2024-04-16T19:48:17.472Z,5.47
2024-04-16T19:50:44.154Z,5.46
2024-04-16T19:53:10.712Z,5.47
2024-04-16T19:55:37.266Z,5.45
2024-04-16T19:58:04.002Z,5.44
2024-04-16T20:00:32.521Z,5.38
2024-04-16T20:02:59.304Z,5.32
2024-04-16T20:05:25.803Z,5.30
2024-04-16T20:07:52.395Z,5.26
2024-04-16T20:10:19.038Z,5.21
2024-04-16T20:12:48.935Z,5.18
2024-04-16T20:15:15.659Z,5.15
2024-04-16T20:17:42.221Z,5.17
2024-04-16T20:20:08.969Z,5.13
2024-04-16T20:22:35.496Z,5.14
2024-04-16T20:25:02.895Z,5.15
2024-04-16T20:27:29.375Z,5.16
2024-04-16T20:29:55.992Z,5.18
2024-04-16T20:32:22.614Z,5.21
2024-04-16T20:34:53.640Z,5.26
2024-04-16T20:37:20.978Z,5.32
2024-04-16T20:39:47.499Z,5.35
2024-04-16T20:42:13.953Z,5.33
2024-04-16T20:44:40.465Z,5.33
2024-04-16T20:47:07.014Z,5.31
2024-04-16T20:49:33.583Z,5.28
2024-04-16T20:52:00.049Z,5.23
2024-04-16T20:54:26.528Z,5.19
2024-04-16T20:56:53.016Z,5.17
2024-04-16T20:59:19.464Z,5.12
2024-04-16T21:01:45.953Z,5.08
2024-04-16T21:04:12.464Z,5.06
2024-04-16T21:06:38.993Z,5.01
2024-04-16T21:09:05.497Z,5.00
2024-04-16T21:11:32.031Z,5.02
2024-04-16T21:13:58.977Z,5.02
2024-04-16T21:16:25.525Z,4.97
2024-04-16T21:18:52.089Z,4.91
2024-04-16T21:21:18.587Z,4.88
2024-04-16T21:23:45.051Z,4.86
2024-04-16T21:26:11.529Z,4.83
2024-04-16T21:28:38.005Z,4.86
2024-04-16T21:31:04.710Z,4.87
2024-04-16T21:33:31.224Z,4.92
2024-04-16T21:35:57.794Z,4.94
2024-04-16T21:38:24.274Z,4.99
2024-04-16T21:40:50.802Z,5.00
2024-04-16T21:43:17.419Z,5.00
2024-04-16T21:45:45.226Z,5.01
2024-04-16T21:48:11.753Z,5.00
2024-04-16T21:50:38.243Z,5.00
2024-04-16T21:53:04.907Z,5.00
2024-04-16T21:55:31.427Z,4.95
2024-04-16T21:57:59.613Z,4.99
2024-04-16T22:00:26.145Z,4.96
2024-04-16T22:02:52.714Z,4.97
2024-04-16T22:05:19.183Z,4.99
2024-04-16T22:07:45.689Z,5.02
2024-04-16T22:10:12.127Z,5.05
2024-04-16T22:12:38.616Z,5.10
2024-04-16T22:15:05.577Z,5.14
2024-04-16T22:17:32.109Z,5.17
2024-04-16T22:19:58.642Z,5.18
2024-04-16T22:22:25.167Z,5.18
2024-04-16T22:24:51.644Z,5.20
2024-04-16T22:27:18.117Z,5.20
2024-04-16T22:29:44.585Z,5.18
2024-04-16T22:32:11.073Z,5.20
2024-04-16T22:34:37.579Z,5.18
2024-04-16T22:37:04.319Z,5.14
2024-04-16T22:39:30.818Z,5.16
2024-04-16T22:41:57.284Z,5.16
2024-04-16T22:44:23.778Z,5.18
2024-04-16T22:46:50.363Z,5.15
2024-04-16T22:49:16.932Z,5.16
2024-04-16T22:51:43.408Z,5.18
2024-04-16T22:54:09.885Z,5.18
2024-04-16T22:56:36.352Z,5.21
2024-04-16T22:59:02.897Z,5.21
2024-04-16T23:01:29.430Z,5.18
2024-04-16T23:03:55.967Z,5.16
2024-04-16T23:06:22.472Z,5.09
2024-04-16T23:08:48.919Z,4.99
2024-04-16T23:11:15.569Z,5.03
2024-04-16T23:13:42.223Z,4.99
2024-04-16T23:16:08.739Z,4.97
2024-04-16T23:18:35.353Z,4.95
2024-04-16T23:21:01.885Z,4.98
2024-04-16T23:23:28.328Z,4.98
2024-04-16T23:25:54.827Z,4.99
2024-04-16T23:28:21.387Z,5.02
2024-04-16T23:30:47.883Z,5.03
2024-04-16T23:33:14.446Z,5.01
2024-04-16T23:35:40.932Z,5.03
2024-04-16T23:38:07.406Z,5.05
2024-04-16T23:40:33.911Z,5.07
2024-04-16T23:43:00.440Z,5.07
2024-04-16T23:45:26.949Z,5.09
2024-04-16T23:47:53.499Z,5.10
2024-04-16T23:50:20.007Z,5.12
2024-04-16T23:52:46.479Z,5.13
2024-04-16T23:55:12.985Z,5.10
2024-04-16T23:57:39.450Z,5.12
